Time;durP1;ratioP1;P1;durP2;ratioP2;P2;SDS_P1;SDS_P2;PMS_P1;PMS_P2;Temp;Humidity;BMP_temperature;BMP_pressure;BME280_temperature;BME280_humidity;BME280_pressure;Samples;Min_cycle;Max_cycle;Signal;HPM_P1;HPM_P2
2023/07/05 00:00:58;;;;;;;16.17;9.10;;;16.00;99.90;;;;;;4719091;30;20244;-86
2023/07/05 00:03:26;;;;;;;18.83;10.33;;;16.00;99.90;;;;;;4711367;30;20221;-85
2023/07/05 00:05:53;;;;;;;16.10;9.47;;;16.00;99.90;;;;;;4729579;30;20290;-85
2023/07/05 00:08:23;;;;;;;15.20;9.40;;;16.00;99.90;;;;;;4711179;30;20213;-87
2023/07/05 00:11:01;;;;;;;20.50;10.43;;;15.90;99.90;;;;;;4715559;30;20750;-88
2023/07/05 00:13:28;;;;;;;19.30;9.97;;;15.90;99.90;;;;;;4728549;30;20224;-86
2023/07/05 00:15:55;;;;;;;15.87;10.40;;;15.90;99.90;;;;;;4725925;30;20553;-87
2023/07/05 00:18:22;;;;;;;14.73;9.67;;;15.80;99.90;;;;;;4726012;30;20244;-86
2023/07/05 00:20:49;;;;;;;16.73;10.37;;;15.90;99.90;;;;;;4724807;30;20233;-84
2023/07/05 00:23:16;;;;;;;19.60;10.97;;;15.90;99.90;;;;;;4717485;30;20217;-84
2023/07/05 00:25:43;;;;;;;20.30;10.73;;;15.80;99.90;;;;;;4723040;30;20686;-87
2023/07/05 00:28:11;;;;;;;21.30;11.53;;;15.80;99.90;;;;;;4727528;30;20216;-88
2023/07/05 00:30:42;;;;;;;21.00;11.70;;;15.80;99.90;;;;;;4708076;30;20225;-84
2023/07/05 00:33:11;;;;;;;17.70;10.67;;;15.80;99.90;;;;;;4724204;30;20588;-84
2023/07/05 00:35:52;;;;;;;17.73;10.43;;;15.70;99.90;;;;;;4709809;30;20212;-84
2023/07/05 00:38:20;;;;;;;18.10;10.77;;;15.80;99.90;;;;;;4723673;30;20316;-83
2023/07/05 00:40:48;;;;;;;17.40;11.40;;;15.70;99.90;;;;;;4726209;30;20578;-83
2023/07/05 00:43:16;;;;;;;18.17;11.60;;;15.70;99.90;;;;;;4710099;30;20605;-82
2023/07/05 00:45:59;;;;;;;24.57;11.93;;;15.70;99.90;;;;;;4712875;30;20322;-82
2023/07/05 00:48:37;;;;;;;21.27;11.77;;;15.70;99.90;;;;;;4713161;30;20208;-84
2023/07/05 00:51:13;;;;;;;21.87;11.90;;;15.70;99.90;;;;;;4721193;30;20213;-85
2023/07/05 00:53:40;;;;;;;20.60;12.13;;;15.60;99.90;;;;;;4722163;30;20665;-86
2023/07/05 00:56:22;;;;;;;19.77;12.00;;;15.60;99.90;;;;;;4712964;30;20229;-87
2023/07/05 00:58:51;;;;;;;21.17;12.07;;;15.60;99.90;;;;;;4724684;30;20220;-84
2023/07/05 01:01:19;;;;;;;21.33;12.57;;;15.60;99.90;;;;;;4710849;30;20576;-85
2023/07/05 01:03:51;;;;;;;23.40;13.10;;;15.60;99.90;;;;;;4710378;30;20279;-86
2023/07/05 01:06:21;;;;;;;25.73;12.17;;;15.60;99.90;;;;;;4710771;30;20257;-84
2023/07/05 01:08:50;;;;;;;22.60;12.97;;;15.60;99.90;;;;;;4708476;30;20209;-83
2023/07/05 01:11:51;;;;;;;26.63;12.67;;;15.70;99.90;;;;;;4707554;30;20232;-83
2023/07/05 01:14:37;;;;;;;21.40;11.63;;;15.60;99.90;;;;;;4725147;30;20286;-82
2023/07/05 01:17:19;;;;;;;23.43;12.03;;;15.40;99.90;;;;;;4723622;30;20224;-82
2023/07/05 01:20:11;;;;;;;20.50;12.00;;;15.60;99.90;;;;;;4722585;30;20327;-83
2023/07/05 01:22:57;;;;;;;22.80;11.40;;;15.60;99.90;;;;;;4727744;30;20233;-83
2023/07/05 01:25:54;;;;;;;21.13;11.60;;;15.20;99.90;;;;;;4711080;30;20209;-83
2023/07/05 01:28:54;;;;;;;20.60;10.90;;;15.60;99.90;;;;;;4730079;30;20628;-84
2023/07/05 01:31:50;;;;;;;20.13;11.60;;;15.60;99.90;;;;;;4728378;30;20702;-83
2023/07/05 01:34:53;;;;;;;22.20;11.43;;;15.60;99.90;;;;;;4727056;30;20685;-83
2023/07/05 01:37:27;;;;;;;22.83;11.83;;;15.70;99.90;;;;;;4708386;30;20208;-82
2023/07/05 01:39:54;;;;;;;22.27;10.50;;;15.60;99.90;;;;;;4728830;30;20240;-80
2023/07/05 01:42:26;;;;;;;23.10;11.93;;;15.70;99.90;;;;;;4716364;30;20224;-81
2023/07/05 01:44:55;;;;;;;22.90;10.93;;;15.60;99.90;;;;;;4727954;30;20233;-80
2023/07/05 01:47:57;;;;;;;25.17;11.13;;;15.60;99.90;;;;;;4721064;30;20750;-81
2023/07/05 01:50:34;;;;;;;23.90;11.50;;;15.60;99.90;;;;;;4715845;30;20226;-80
2023/07/05 01:53:11;;;;;;;22.00;11.73;;;15.60;99.90;;;;;;4723194;30;20217;-80
2023/07/05 01:55:47;;;;;;;24.43;11.77;;;15.70;99.90;;;;;;4712105;30;20311;-81
2023/07/05 01:58:19;;;;;;;20.37;11.70;;;15.70;99.90;;;;;;4724453;30;20281;-80
2023/07/05 02:00:50;;;;;;;23.37;11.83;;;15.90;99.90;;;;;;4723853;30;20273;-82
2023/07/05 02:03:22;;;;;;;23.97;12.70;;;15.70;99.90;;;;;;4715400;30;20586;-81
2023/07/05 02:05:49;;;;;;;24.60;12.60;;;15.80;99.90;;;;;;4722425;30;20209;-81
2023/07/05 02:08:18;;;;;;;22.30;11.90;;;15.80;99.90;;;;;;4725313;30;20233;-81
2023/07/05 02:10:45;;;;;;;24.60;13.40;;;15.80;99.90;;;;;;4718806;30;20658;-82
2023/07/05 02:13:12;;;;;;;30.73;13.73;;;15.80;99.90;;;;;;4724567;30;20204;-80
2023/07/05 02:15:39;;;;;;;29.57;14.33;;;15.80;99.90;;;;;;4721063;30;20312;-81
2023/07/05 02:18:07;;;;;;;26.83;13.30;;;15.80;99.90;;;;;;4723425;30;20260;-81
2023/07/05 02:20:35;;;;;;;27.20;12.77;;;15.80;99.90;;;;;;4723683;30;20244;-81
2023/07/05 02:23:06;;;;;;;21.17;12.50;;;15.80;99.90;;;;;;4721515;30;20629;-83
2023/07/05 02:25:33;;;;;;;23.87;12.47;;;15.80;99.90;;;;;;4717697;30;20220;-82
2023/07/05 02:27:59;;;;;;;28.10;13.57;;;15.80;99.90;;;;;;4723259;30;20560;-81
2023/07/05 02:30:26;;;;;;;24.27;13.20;;;15.80;99.90;;;;;;4731655;30;20235;-80
2023/07/05 02:32:54;;;;;;;22.60;12.00;;;15.90;99.90;;;;;;4725867;30;20218;-82
2023/07/05 02:35:21;;;;;;;20.93;11.23;;;15.80;99.90;;;;;;4721935;30;20217;-80
2023/07/05 02:37:48;;;;;;;21.57;10.63;;;15.90;99.90;;;;;;4721364;30;20243;-80
2023/07/05 02:40:15;;;;;;;16.67;7.60;;;15.90;99.90;;;;;;4724385;30;20745;-80
2023/07/05 02:42:42;;;;;;;15.37;7.97;;;15.90;99.90;;;;;;4719896;30;20625;-79
2023/07/05 02:45:09;;;;;;;13.87;8.10;;;15.90;99.90;;;;;;4721415;30;20229;-80
2023/07/05 02:47:36;;;;;;;13.97;7.07;;;16.00;99.90;;;;;;4722553;30;20283;-80
2023/07/05 02:50:03;;;;;;;10.70;6.10;;;16.00;99.90;;;;;;4720048;30;20686;-81
2023/07/05 02:52:30;;;;;;;12.27;6.10;;;16.00;99.90;;;;;;4709819;30;20221;-80
2023/07/05 02:54:57;;;;;;;10.03;5.13;;;16.10;99.90;;;;;;4720863;30;20264;-78
2023/07/05 02:57:24;;;;;;;8.53;5.47;;;16.10;99.90;;;;;;4709229;30;20220;-81
2023/07/05 02:59:51;;;;;;;9.43;6.07;;;16.10;99.90;;;;;;4713156;30;20331;-79
2023/07/05 03:02:18;;;;;;;8.30;5.37;;;16.00;99.90;;;;;;4723236;30;20302;-80
2023/07/05 03:04:46;;;;;;;8.13;5.00;;;16.00;99.90;;;;;;4726997;30;20236;-79
2023/07/05 03:07:13;;;;;;;5.70;4.70;;;16.00;99.90;;;;;;4728432;30;20236;-78
2023/07/05 03:09:40;;;;;;;8.93;4.77;;;16.00;99.90;;;;;;4721964;30;20219;-79
2023/07/05 03:12:08;;;;;;;6.97;4.10;;;16.00;99.90;;;;;;4711200;30;20225;-81
2023/07/05 03:14:37;;;;;;;7.37;4.20;;;16.00;99.90;;;;;;4724956;30;20308;-78
2023/07/05 03:17:04;;;;;;;6.80;3.70;;;16.00;99.90;;;;;;4721566;30;20657;-80
2023/07/05 03:19:35;;;;;;;5.37;3.60;;;15.90;99.90;;;;;;4707742;30;20626;-78
2023/07/05 03:22:02;;;;;;;6.97;3.67;;;15.90;99.90;;;;;;4710034;30;20221;-80
2023/07/05 03:24:31;;;;;;;8.23;4.03;;;15.90;99.90;;;;;;4717488;30;20222;-80
2023/07/05 03:26:58;;;;;;;6.97;3.50;;;15.90;99.90;;;;;;4725240;30;20216;-80
2023/07/05 03:29:26;;;;;;;8.13;4.10;;;15.80;99.90;;;;;;4724313;30;20231;-79
2023/07/05 03:31:58;;;;;;;7.83;5.70;;;15.60;99.90;;;;;;4724611;30;20725;-80
2023/07/05 03:34:28;;;;;;;13.80;6.63;;;15.50;99.90;;;;;;4725161;30;20665;-81
2023/07/05 03:36:55;;;;;;;11.27;6.20;;;15.40;99.90;;;;;;4725905;30;20898;-77
2023/07/05 03:39:22;;;;;;;6.47;5.33;;;15.30;99.90;;;;;;4725812;30;20232;-80
2023/07/05 03:41:49;;;;;;;6.23;5.30;;;15.20;99.90;;;;;;4722969;30;20245;-80
2023/07/05 03:44:16;;;;;;;8.47;5.83;;;15.10;99.90;;;;;;4706428;30;20217;-78
2023/07/05 03:46:43;;;;;;;7.27;5.00;;;15.00;99.90;;;;;;4719902;30;20233;-79
2023/07/05 03:49:16;;;;;;;6.93;5.00;;;14.80;99.90;;;;;;4717168;30;20243;-79
2023/07/05 03:51:46;;;;;;;6.90;4.87;;;14.70;99.90;;;;;;4719584;30;20205;-77
2023/07/05 03:54:13;;;;;;;7.57;5.10;;;14.60;99.90;;;;;;4724237;30;20229;-80
2023/07/05 03:56:40;;;;;;;8.57;5.30;;;14.50;99.90;;;;;;4721763;30;20580;-79
2023/07/05 03:59:09;;;;;;;7.37;4.30;;;14.40;99.90;;;;;;4720021;30;20224;-79
2023/07/05 04:01:36;;;;;;;6.77;4.67;;;14.30;99.90;;;;;;4723409;30;20233;-81
2023/07/05 04:04:03;;;;;;;6.30;4.73;;;14.30;99.90;;;;;;4721732;30;20213;-77
2023/07/05 04:06:32;;;;;;;6.10;4.67;;;14.20;99.90;;;;;;4719839;30;20238;-80
2023/07/05 04:09:00;;;;;;;5.10;4.60;;;14.20;99.90;;;;;;4724012;30;20209;-80
2023/07/05 04:11:27;;;;;;;7.47;4.37;;;14.20;99.90;;;;;;4722834;30;20279;-78
2023/07/05 04:13:55;;;;;;;7.17;4.90;;;14.20;99.90;;;;;;4706142;30;20213;-80
2023/07/05 04:16:24;;;;;;;7.57;4.80;;;14.20;99.90;;;;;;4719117;30;20225;-79
2023/07/05 04:18:54;;;;;;;6.80;4.47;;;14.10;99.90;;;;;;4721528;30;20225;-77
2023/07/05 04:21:22;;;;;;;5.53;3.93;;;14.10;99.90;;;;;;4705842;30;20240;-81
2023/07/05 04:23:53;;;;;;;7.10;4.03;;;14.20;99.90;;;;;;4710140;30;20208;-78
2023/07/05 04:26:25;;;;;;;5.97;4.07;;;14.10;99.90;;;;;;4705415;30;20217;-79
2023/07/05 04:28:53;;;;;;;6.37;4.00;;;14.10;99.90;;;;;;4721850;30;20222;-78
2023/07/05 04:31:26;;;;;;;7.83;4.27;;;14.20;99.90;;;;;;4723827;30;20237;-77
2023/07/05 04:33:54;;;;;;;7.70;4.20;;;14.10;99.90;;;;;;4721113;30;20718;-79
2023/07/05 04:36:21;;;;;;;6.37;4.17;;;14.10;99.90;;;;;;4720877;30;20304;-76
2023/07/05 04:38:57;;;;;;;5.90;3.50;;;14.10;99.90;;;;;;4726942;30;20217;-78
2023/07/05 04:41:25;;;;;;;7.57;4.03;;;14.10;99.90;;;;;;4725467;30;20272;-78
2023/07/05 04:43:52;;;;;;;4.97;3.37;;;14.10;99.90;;;;;;4722854;30;20221;-79
2023/07/05 04:46:19;;;;;;;4.80;3.40;;;14.10;99.90;;;;;;4710703;30;20236;-76
2023/07/05 04:48:47;;;;;;;8.00;3.70;;;14.20;99.90;;;;;;4711037;30;20430;-76
2023/07/05 04:51:17;;;;;;;3.87;2.93;;;14.20;99.90;;;;;;4723339;30;20607;-79
2023/07/05 04:53:44;;;;;;;6.07;3.30;;;14.20;99.90;;;;;;4724579;30;20247;-78
2023/07/05 04:56:13;;;;;;;4.93;3.33;;;14.20;99.90;;;;;;4722308;30;20221;-79
2023/07/05 04:58:40;;;;;;;5.30;3.03;;;14.20;99.90;;;;;;4721511;30;20220;-79
2023/07/05 05:01:08;;;;;;;6.40;3.43;;;14.30;99.90;;;;;;4721388;30;20255;-78
2023/07/05 05:03:35;;;;;;;5.73;3.23;;;14.30;99.90;;;;;;4728690;30;20220;-77
2023/07/05 05:06:02;;;;;;;6.07;3.37;;;14.40;99.90;;;;;;4736798;30;20277;-76
2023/07/05 05:08:29;;;;;;;6.03;3.43;;;14.40;99.90;;;;;;4734200;30;20745;-77
2023/07/05 05:10:59;;;;;;;6.53;3.67;;;14.40;99.90;;;;;;4714433;30;20689;-77
2023/07/05 05:13:27;;;;;;;7.50;3.70;;;14.40;99.90;;;;;;4732584;30;20224;-77
2023/07/05 05:15:55;;;;;;;5.63;3.60;;;14.50;99.90;;;;;;4711673;30;20767;-78
2023/07/05 05:18:29;;;;;;;7.77;4.13;;;14.50;99.90;;;;;;4725414;30;20492;-78
2023/07/05 05:20:56;;;;;;;5.67;3.60;;;14.50;99.90;;;;;;4727581;30;20246;-77
2023/07/05 05:23:23;;;;;;;7.10;3.60;;;14.50;99.90;;;;;;4724906;30;20671;-79
2023/07/05 05:25:51;;;;;;;7.57;3.57;;;14.50;99.90;;;;;;4724209;30;20274;-79
2023/07/05 05:28:20;;;;;;;6.33;3.80;;;14.50;99.90;;;;;;4728976;30;20274;-78
2023/07/05 05:30:49;;;;;;;6.40;3.67;;;14.50;99.90;;;;;;4710216;30;20635;-78
2023/07/05 05:33:17;;;;;;;7.80;3.87;;;14.60;99.90;;;;;;4723996;30;20291;-77
2023/07/05 05:35:48;;;;;;;5.83;3.57;;;14.60;99.90;;;;;;4727814;30;20286;-78
2023/07/05 05:38:19;;;;;;;7.97;3.77;;;14.60;99.90;;;;;;4725328;30;20323;-79
2023/07/05 05:40:51;;;;;;;7.83;3.83;;;14.70;99.90;;;;;;4726101;30;20325;-78
2023/07/05 05:43:19;;;;;;;6.57;3.57;;;14.80;99.90;;;;;;4722065;30;20671;-79
2023/07/05 05:45:46;;;;;;;6.27;3.50;;;14.80;99.90;;;;;;4709462;30;20729;-78
2023/07/05 05:48:13;;;;;;;6.00;3.50;;;15.00;99.90;;;;;;4726031;30;20209;-78
2023/07/05 05:50:40;;;;;;;5.77;3.30;;;14.90;99.90;;;;;;4722921;30;20217;-77
2023/07/05 05:53:10;;;;;;;5.37;3.30;;;14.90;99.90;;;;;;4725826;30;20205;-78
2023/07/05 05:55:39;;;;;;;5.13;2.80;;;15.00;99.90;;;;;;4727984;30;20224;-79
2023/07/05 05:58:06;;;;;;;5.47;2.80;;;15.10;99.90;;;;;;4730873;30;20252;-77
2023/07/05 06:00:34;;;;;;;5.30;3.00;;;15.10;99.90;;;;;;4709339;30;20580;-76
2023/07/05 06:03:01;;;;;;;5.10;2.77;;;15.10;99.90;;;;;;4724868;30;20217;-79
2023/07/05 06:05:28;;;;;;;5.80;2.90;;;15.00;99.90;;;;;;4728864;30;20221;-77
2023/07/05 06:07:55;;;;;;;6.50;3.37;;;15.00;99.90;;;;;;4722877;30;20285;-80
2023/07/05 06:10:22;;;;;;;5.67;2.93;;;15.00;99.90;;;;;;4725680;30;20303;-79
2023/07/05 06:12:49;;;;;;;6.03;3.47;;;15.00;99.90;;;;;;4720433;30;20296;-82
2023/07/05 06:15:16;;;;;;;4.77;3.20;;;14.90;99.90;;;;;;4722164;30;20446;-80
2023/07/05 06:17:43;;;;;;;6.00;3.87;;;14.90;99.90;;;;;;4720656;30;20212;-81
2023/07/05 06:20:11;;;;;;;6.00;3.50;;;14.90;99.90;;;;;;4721994;30;20210;-78
2023/07/05 06:22:39;;;;;;;5.43;3.13;;;15.00;99.90;;;;;;4708532;30;20241;-79
2023/07/05 06:25:06;;;;;;;6.33;3.13;;;15.00;99.90;;;;;;4723691;30;20287;-80
2023/07/05 06:27:36;;;;;;;5.83;3.53;;;14.90;99.90;;;;;;4721378;30;20217;-81
2023/07/05 06:30:04;;;;;;;5.10;3.40;;;14.80;99.90;;;;;;4721910;30;20232;-81
2023/07/05 06:32:32;;;;;;;5.77;3.70;;;14.80;99.90;;;;;;4726849;30;20299;-82
2023/07/05 06:34:59;;;;;;;5.47;3.37;;;14.80;99.90;;;;;;4725810;30;20224;-78
2023/07/05 06:37:26;;;;;;;5.27;3.03;;;14.80;99.90;;;;;;4720428;30;20317;-81
2023/07/05 06:39:53;;;;;;;6.13;3.10;;;14.60;99.90;;;;;;4719368;30;20260;-83
2023/07/05 06:42:20;;;;;;;9.17;3.27;;;14.60;99.90;;;;;;4720788;30;20643;-79
2023/07/05 06:44:46;;;;;;;5.50;3.40;;;14.60;99.90;;;;;;4707482;30;20245;-81
2023/07/05 06:47:13;;;;;;;3.90;2.77;;;14.60;99.90;;;;;;4718146;30;20687;-81
2023/07/05 06:49:46;;;;;;;4.33;2.90;;;14.70;99.90;;;;;;4719979;30;20224;-79
2023/07/05 06:52:13;;;;;;;4.67;3.00;;;14.50;99.90;;;;;;4721224;30;20753;-81
2023/07/05 06:54:40;;;;;;;7.60;2.97;;;14.30;99.90;;;;;;4719043;30;20300;-79
2023/07/05 06:57:07;;;;;;;5.53;2.80;;;14.20;99.90;;;;;;4720716;30;20231;-76
2023/07/05 06:59:33;;;;;;;3.97;2.20;;;14.10;99.90;;;;;;4719438;30;20244;-79
2023/07/05 07:02:01;;;;;;;2.70;2.00;;;13.90;99.90;;;;;;4721419;30;20245;-76
2023/07/05 07:04:29;;;;;;;1.73;1.60;;;13.70;99.90;;;;;;4722542;30;20213;-78
2023/07/05 07:06:56;;;;;;;3.27;1.70;;;13.50;99.90;;;;;;4724801;30;20701;-79
2023/07/05 07:09:23;;;;;;;2.33;1.83;;;13.40;99.90;;;;;;4726121;30;20205;-81
2023/07/05 07:11:50;;;;;;;2.10;1.67;;;13.40;99.90;;;;;;4723917;30;20270;-81
2023/07/05 07:14:17;;;;;;;2.57;2.00;;;13.30;99.90;;;;;;4729259;30;20209;-82
2023/07/05 07:16:44;;;;;;;3.07;1.53;;;13.30;99.90;;;;;;4721507;30;20236;-82
2023/07/05 07:19:11;;;;;;;2.00;1.70;;;13.20;99.90;;;;;;4718290;30;20220;-84
2023/07/05 07:21:38;;;;;;;3.47;1.83;;;13.20;99.90;;;;;;4725231;30;20248;-80
2023/07/05 07:24:05;;;;;;;3.63;1.63;;;13.20;99.90;;;;;;4708976;30;20273;-80
2023/07/05 07:26:32;;;;;;;2.77;1.70;;;13.20;99.90;;;;;;4719762;30;20313;-80
2023/07/05 07:28:59;;;;;;;1.67;1.33;;;13.10;99.90;;;;;;4707453;30;20209;-80
2023/07/05 07:31:31;;;;;;;1.47;1.20;;;13.10;99.90;;;;;;4721002;30;20271;-79
2023/07/05 07:34:00;;;;;;;3.40;1.40;;;13.10;99.90;;;;;;4708100;30;20228;-80
2023/07/05 07:36:36;;;;;;;2.07;1.40;;;13.10;99.90;;;;;;4724791;30;20255;-79
2023/07/05 07:39:04;;;;;;;2.63;1.30;;;13.00;99.90;;;;;;4721390;30;20213;-79
2023/07/05 07:41:36;;;;;;;2.13;1.40;;;12.90;99.90;;;;;;4710200;30;20319;-78
2023/07/05 07:44:06;;;;;;;3.80;1.90;;;12.90;99.90;;;;;;4707613;30;20209;-79
2023/07/05 07:46:34;;;;;;;3.97;1.60;;;12.80;99.90;;;;;;4720007;30;20237;-81
2023/07/05 07:49:03;;;;;;;3.30;1.40;;;12.80;99.90;;;;;;4720248;30;20228;-79
2023/07/05 07:51:33;;;;;;;1.83;1.27;;;12.70;99.90;;;;;;4708247;30;20228;-78
2023/07/05 07:54:15;;;;;;;2.60;1.40;;;12.70;99.90;;;;;;4718219;30;20547;-80
2023/07/05 07:56:46;;;;;;;5.27;1.60;;;12.70;99.90;;;;;;4719915;30;20224;-79
2023/07/05 07:59:14;;;;;;;1.70;1.60;;;12.80;99.90;;;;;;4723475;30;20239;-79
2023/07/05 08:01:41;;;;;;;5.93;2.07;;;12.70;99.90;;;;;;4707571;30;20248;-81
2023/07/05 08:04:10;;;;;;;6.33;2.10;;;12.80;99.90;;;;;;4711611;30;20226;-79
2023/07/05 08:06:40;;;;;;;3.67;2.53;;;12.80;99.90;;;;;;4723160;30;20345;-79
2023/07/05 08:09:11;;;;;;;8.50;2.30;;;12.90;99.90;;;;;;4709340;30;20284;-78
2023/07/05 08:11:39;;;;;;;4.17;2.13;;;12.90;99.90;;;;;;4725241;30;20646;-77
2023/07/05 08:14:07;;;;;;;3.90;2.00;;;13.00;99.90;;;;;;4724811;30;20252;-80
2023/07/05 08:16:35;;;;;;;3.73;2.00;;;13.00;99.90;;;;;;4708573;30;20710;-79
2023/07/05 08:19:02;;;;;;;3.87;2.10;;;13.10;99.90;;;;;;4715588;30;20222;-80
2023/07/05 08:21:29;;;;;;;4.50;2.40;;;13.10;99.90;;;;;;4728736;30;20245;-80
2023/07/05 08:23:56;;;;;;;5.87;2.43;;;13.20;99.90;;;;;;4722870;30;20682;-79
2023/07/05 08:26:32;;;;;;;6.10;2.97;;;13.20;99.90;;;;;;4724304;30;20216;-79
2023/07/05 08:28:59;;;;;;;5.57;2.97;;;13.20;99.90;;;;;;4722877;30;20229;-78
2023/07/05 08:31:26;;;;;;;6.80;2.93;;;13.10;99.90;;;;;;4722490;30;20305;-80
2023/07/05 08:33:53;;;;;;;5.17;2.70;;;13.20;99.90;;;;;;4729501;30;20240;-79
2023/07/05 08:36:35;;;;;;;6.97;4.03;;;13.20;99.90;;;;;;4726307;30;20610;-78
2023/07/05 08:39:05;;;;;;;5.67;3.00;;;13.20;99.90;;;;;;4724075;30;20224;-79
2023/07/05 08:41:41;;;;;;;6.87;3.30;;;13.20;99.90;;;;;;4727211;30;20268;-77
2023/07/05 08:45:00;;;;;;;5.87;3.20;;;13.30;99.90;;;;;;4721928;30;20290;-77
2023/07/05 08:47:47;;;;;;;7.27;3.40;;;13.40;99.90;;;;;;4701578;30;20286;-79
2023/07/05 08:50:37;;;;;;;3.70;2.70;;;13.40;99.90;;;;;;4727381;30;20643;-77
2023/07/05 08:53:15;;;;;;;5.17;2.80;;;13.40;99.90;;;;;;4722870;30;20587;-79
2023/07/05 08:55:45;;;;;;;10.83;3.13;;;13.40;99.90;;;;;;4723606;30;20216;-77
2023/07/05 08:58:20;;;;;;;4.97;2.53;;;13.40;99.90;;;;;;4724149;30;20233;-77
2023/07/05 09:00:55;;;;;;;5.10;2.60;;;13.40;99.90;;;;;;4723352;30;20289;-78
2023/07/05 09:03:23;;;;;;;6.97;2.77;;;13.40;99.90;;;;;;4722363;30;20268;-77
2023/07/05 09:05:57;;;;;;;4.27;2.27;;;13.40;99.90;;;;;;4709424;30;20260;-77
2023/07/05 09:08:40;;;;;;;5.23;2.40;;;13.50;99.90;;;;;;4723772;30;20217;-80
2023/07/05 09:11:36;;;;;;;3.53;2.27;;;13.60;99.90;;;;;;4722988;30;20743;-80
2023/07/05 09:14:24;;;;;;;7.70;2.73;;;13.50;99.90;;;;;;4723831;30;20221;-78
2023/07/05 09:17:10;;;;;;;5.57;2.70;;;13.60;99.90;;;;;;4705323;30;20688;-79
2023/07/05 09:20:04;;;;;;;8.00;2.70;;;13.70;99.90;;;;;;4723719;30;20220;-81
2023/07/05 09:22:36;;;;;;;7.07;2.43;;;13.80;99.90;;;;;;4716367;30;20233;-79
2023/07/05 09:25:05;;;;;;;3.93;2.00;;;13.80;99.90;;;;;;4734938;30;20239;-79
2023/07/05 09:27:37;;;;;;;3.00;1.90;;;13.90;99.90;;;;;;4736300;30;20703;-78
2023/07/05 09:30:20;;;;;;;5.37;2.17;;;13.90;99.90;;;;;;4735579;30;20226;-79
2023/07/05 09:32:57;;;;;;;4.57;1.93;;;14.00;99.90;;;;;;4727855;30;20663;-78
2023/07/05 09:35:27;;;;;;;3.83;2.03;;;14.00;99.90;;;;;;4714229;30;20209;-78
2023/07/05 09:38:00;;;;;;;10.20;2.40;;;14.00;99.90;;;;;;4727825;30;20754;-82
2023/07/05 09:40:38;;;;;;;8.57;2.33;;;14.10;99.90;;;;;;4728995;30;20299;-78
2023/07/05 09:43:14;;;;;;;6.57;2.30;;;14.10;99.90;;;;;;4711551;30;20339;-79
2023/07/05 09:45:41;;;;;;;6.30;2.37;;;14.10;99.90;;;;;;4712250;30;20270;-79
2023/07/05 09:48:11;;;;;;;3.07;2.00;;;14.20;99.90;;;;;;4722377;30;20291;-79
2023/07/05 09:50:50;;;;;;;3.90;1.73;;;14.30;99.90;;;;;;4727053;30;20670;-78
2023/07/05 09:53:41;;;;;;;3.97;2.53;;;14.40;99.90;;;;;;4723653;30;20248;-78
2023/07/05 09:56:12;;;;;;;6.10;2.13;;;14.60;99.90;;;;;;4720726;30;20397;-80
2023/07/05 09:58:40;;;;;;;7.67;2.50;;;14.60;99.90;;;;;;4723846;30;20213;-78
2023/07/05 10:01:13;;;;;;;6.40;2.00;;;14.70;99.90;;;;;;4721532;30;20228;-79
2023/07/05 10:03:57;;;;;;;6.50;2.30;;;14.90;99.90;;;;;;4720189;30;20707;-79
2023/07/05 10:06:26;;;;;;;9.57;2.43;;;15.20;99.90;;;;;;4723361;30;20206;-78
2023/07/05 10:08:55;;;;;;;6.87;2.00;;;15.50;99.90;;;;;;4722920;30;20679;-78
2023/07/05 10:11:42;;;;;;;7.43;2.80;;;15.70;99.90;;;;;;4723941;30;20227;-77
2023/07/05 10:14:13;;;;;;;10.63;3.08;;;16.10;99.90;;;;;;4720518;30;20310;-78
2023/07/05 10:16:52;;;;;;;9.32;2.78;;;16.20;99.90;;;;;;4716641;30;20706;-77
2023/07/05 10:19:31;;;;;;;7.93;2.35;;;16.20;99.90;;;;;;4722674;30;20243;-78
2023/07/05 10:22:14;;;;;;;5.63;3.03;;;16.10;99.90;;;;;;4724393;30;20552;-78
2023/07/05 10:24:50;;;;;;;4.70;2.35;;;16.10;99.90;;;;;;4723637;30;20248;-79
2023/07/05 10:27:19;;;;;;;5.70;2.22;;;16.00;99.90;;;;;;4718893;30;20228;-78
2023/07/05 10:29:55;;;;;;;5.25;1.67;;;15.90;99.90;;;;;;4722542;30;20643;-79
2023/07/05 10:32:22;;;;;;;9.80;2.47;;;15.80;99.90;;;;;;4723202;30;20293;-77
2023/07/05 10:34:51;;;;;;;4.95;2.00;;;15.80;99.90;;;;;;4720751;30;20267;-79
2023/07/05 10:37:33;;;;;;;3.90;1.92;;;15.90;99.90;;;;;;4721663;30;20216;-78
2023/07/05 10:40:10;;;;;;;3.97;2.08;;;15.90;99.90;;;;;;4727775;30;20228;-80
2023/07/05 10:42:39;;;;;;;6.07;2.13;;;15.90;99.90;;;;;;4722116;30;20239;-79
2023/07/05 10:45:13;;;;;;;6.07;1.85;;;15.70;99.90;;;;;;4719715;30;20236;-80
2023/07/05 10:47:42;;;;;;;5.32;2.10;;;15.80;99.90;;;;;;4719239;30;20223;-79
2023/07/05 10:50:09;;;;;;;5.93;2.25;;;15.70;99.90;;;;;;4719754;30;20734;-79
2023/07/05 10:52:39;;;;;;;8.97;2.27;;;15.70;99.90;;;;;;4720354;30;20532;-78
2023/07/05 10:55:19;;;;;;;6.25;2.42;;;15.80;99.90;;;;;;4719554;30;20227;-79
2023/07/05 10:58:06;;;;;;;4.90;2.17;;;15.90;99.90;;;;;;4723148;30;20227;-79
2023/07/05 11:00:40;;;;;;;5.32;2.40;;;15.90;99.90;;;;;;4724155;30;20259;-79
2023/07/05 11:03:53;;;;;;;7.40;2.73;;;15.70;99.90;;;;;;4715246;30;20677;-78
2023/07/05 11:06:21;;;;;;;5.43;2.22;;;15.60;99.90;;;;;;4721733;30;20216;-79
2023/07/05 11:08:49;;;;;;;4.70;1.87;;;15.50;99.90;;;;;;4719729;30;20209;-79
2023/07/05 11:11:21;;;;;;;3.47;2.20;;;15.40;99.90;;;;;;4720956;30;20220;-77
2023/07/05 11:13:49;;;;;;;6.30;1.95;;;15.60;99.90;;;;;;4722673;30;20597;-78
2023/07/05 11:16:19;;;;;;;5.18;2.28;;;15.70;99.90;;;;;;4720834;30;20240;-78
2023/07/05 11:18:48;;;;;;;3.53;2.00;;;15.60;99.90;;;;;;4722893;30;20213;-80
2023/07/05 11:21:44;;;;;;;6.37;2.00;;;15.50;99.90;;;;;;4720744;30;20216;-80
2023/07/05 11:24:32;;;;;;;8.55;2.05;;;15.60;99.90;;;;;;4723116;30;20706;-79
2023/07/05 11:27:00;;;;;;;4.10;2.17;;;15.40;99.90;;;;;;4718461;30;20221;-79
2023/07/05 11:29:27;;;;;;;3.37;1.70;;;15.40;99.90;;;;;;4724380;30;20231;-78
2023/07/05 11:31:56;;;;;;;2.97;1.53;;;15.30;99.90;;;;;;4721425;30;20702;-79
2023/07/05 11:34:23;;;;;;;3.87;1.77;;;15.30;99.90;;;;;;4718565;30;20221;-79
2023/07/05 11:37:02;;;;;;;3.60;2.20;;;15.10;99.90;;;;;;4725181;30;20327;-79
2023/07/05 11:40:24;;;;;;;5.60;2.40;;;15.10;99.90;;;;;;4723513;30;20248;-79
2023/07/05 11:42:52;;;;;;;3.77;1.90;;;15.00;99.90;;;;;;4692486;30;20240;-79
2023/07/05 11:45:20;;;;;;;9.23;2.27;;;14.80;99.90;;;;;;4723688;30;20259;-79
2023/07/05 11:47:48;;;;;;;4.73;2.17;;;14.80;99.90;;;;;;4725740;30;20223;-80
2023/07/05 11:50:15;;;;;;;4.90;1.80;;;14.70;99.90;;;;;;4714380;30;20213;-79
2023/07/05 11:52:46;;;;;;;3.00;2.00;;;14.70;99.90;;;;;;4712351;30;20224;-78
2023/07/05 11:55:24;;;;;;;7.33;2.60;;;14.70;99.90;;;;;;4721594;30;20217;-78
2023/07/05 11:58:01;;;;;;;5.50;2.27;;;14.80;99.90;;;;;;4730837;30;20212;-80
2023/07/05 12:00:34;;;;;;;5.70;2.43;;;15.10;99.90;;;;;;4729371;30;20232;-78
2023/07/05 12:03:17;;;;;;;4.23;2.20;;;15.00;99.90;;;;;;4717986;30;20325;-80
2023/07/05 12:05:45;;;;;;;3.87;1.97;;;15.00;99.90;;;;;;4736361;30;20346;-79
2023/07/05 12:08:24;;;;;;;4.33;2.17;;;14.90;99.90;;;;;;4729372;30;20217;-79
2023/07/05 12:10:54;;;;;;;5.10;2.10;;;14.90;99.90;;;;;;4718138;30;20692;-80
2023/07/05 12:13:24;;;;;;;8.00;2.43;;;14.90;99.90;;;;;;4730387;30;20213;-77
2023/07/05 12:15:53;;;;;;;4.13;2.20;;;15.00;99.90;;;;;;4732447;30;20229;-78
2023/07/05 12:18:21;;;;;;;2.70;2.00;;;15.00;99.90;;;;;;4717636;30;20240;-80
2023/07/05 12:20:50;;;;;;;5.50;2.30;;;15.20;99.90;;;;;;4734414;30;20217;-79
2023/07/05 12:23:18;;;;;;;5.73;2.10;;;15.10;99.90;;;;;;4723378;30;20236;-79
2023/07/05 12:25:52;;;;;;;3.70;2.00;;;15.10;99.90;;;;;;4725867;30;20612;-79
2023/07/05 12:28:42;;;;;;;5.03;2.60;;;15.40;99.90;;;;;;4726066;30;20280;-79
2023/07/05 12:31:22;;;;;;;2.23;2.00;;;15.50;99.90;;;;;;4717981;30;20297;-80
2023/07/05 12:33:55;;;;;;;5.25;2.13;;;15.70;99.90;;;;;;4711036;30;20256;-79
2023/07/05 12:36:22;;;;;;;2.83;2.15;;;15.70;99.90;;;;;;4716549;30;20619;-79
2023/07/05 12:39:05;;;;;;;7.05;2.28;;;15.80;99.90;;;;;;4725777;30;20225;-80
2023/07/05 12:41:32;;;;;;;5.68;2.47;;;15.90;99.90;;;;;;4711297;30;20209;-79
2023/07/05 12:44:05;;;;;;;6.97;2.37;;;15.90;99.90;;;;;;4723532;30;20245;-79
2023/07/05 12:46:34;;;;;;;3.47;1.90;;;15.90;99.90;;;;;;4707755;30;20313;-80
2023/07/05 12:49:26;;;;;;;4.15;2.50;;;15.70;99.90;;;;;;4722708;30;20297;-79
2023/07/05 12:52:04;;;;;;;4.27;1.93;;;15.70;99.90;;;;;;4711553;30;20213;-82
2023/07/05 12:57:20;;;;;;;5.93;2.30;;;15.60;99.90;;;;;;4475716;24;20243;-78
2023/07/05 12:59:49;;;;;;;3.33;2.27;;;15.60;99.90;;;;;;4739295;30;20232;-78
2023/07/05 13:02:31;;;;;;;5.70;2.53;;;15.50;99.90;;;;;;4744614;30;20232;-76
2023/07/05 13:04:59;;;;;;;3.03;2.10;;;15.40;99.90;;;;;;4741654;30;20212;-77
2023/07/05 13:07:27;;;;;;;5.57;2.20;;;15.20;99.90;;;;;;4728022;30;20216;-79
2023/07/05 13:10:01;;;;;;;6.93;2.33;;;15.10;99.90;;;;;;4744015;30;20660;-75